Time;durP1;ratioP1;P1;durP2;ratioP2;P2;SDS_P1;SDS_P2;PMS_P1;PMS_P2;Temp;Humidity;BMP_temperature;BMP_pressure;BME280_temperature;BME280_humidity;BME280_pressure;Samples;Min_cycle;Max_cycle;Signal;HPM_P1;HPM_P2
2023/05/24 00:00:43;;;;;;;2.23;1.70;;;;;;;;;;5107054;28;20848;-68
2023/05/24 00:03:10;;;;;;;3.00;1.97;;;;;;;;;;5110654;28;20451;-67
2023/05/24 00:05:39;;;;;;;1.80;1.40;;;;;;;;;;5111711;28;20868;-68
2023/05/24 00:08:07;;;;;;;4.37;2.10;;;;;;;;;;5111126;28;20479;-68
2023/05/24 00:10:34;;;;;;;3.93;1.83;;;;;;;;;;5111408;28;20487;-67
2023/05/24 00:13:02;;;;;;;2.50;1.50;;;;;;;;;;5110316;28;20450;-67
2023/05/24 00:15:29;;;;;;;2.43;1.50;;;;;;;;;;5111576;28;20458;-67
2023/05/24 00:17:56;;;;;;;2.80;1.70;;;;;;;;;;5111004;28;20813;-67
2023/05/24 00:20:26;;;;;;;2.07;1.50;;;;;;;;;;5111447;28;20470;-67
2023/05/24 00:22:54;;;;;;;3.00;1.83;;;;;;;;;;5110947;28;20451;-68
2023/05/24 00:25:21;;;;;;;2.43;1.57;;;;;;;;;;5111085;28;20957;-68
2023/05/24 00:27:48;;;;;;;3.80;1.67;;;;;;;;;;5110949;28;20440;-68
2023/05/24 00:30:16;;;;;;;1.73;1.03;;;;;;;;;;5111346;28;20539;-68
2023/05/24 00:32:43;;;;;;;1.70;1.43;;;;;;;;;;5110452;28;20459;-68
2023/05/24 00:35:10;;;;;;;5.00;3.27;;;;;;;;;;5111299;28;20455;-68
2023/05/24 00:37:40;;;;;;;3.03;1.73;;;;;;;;;;5111154;28;20448;-68
2023/05/24 00:40:08;;;;;;;3.03;1.73;;;;;;;;;;5111209;28;20454;-68
2023/05/24 00:42:35;;;;;;;3.50;1.33;;;;;;;;;;5110861;28;20578;-68
2023/05/24 00:45:03;;;;;;;3.43;1.50;;;;;;;;;;5110747;28;20452;-68
2023/05/24 00:47:31;;;;;;;4.87;1.60;;;;;;;;;;5111247;28;20474;-68
2023/05/24 00:49:58;;;;;;;2.33;1.30;;;;;;;;;;5110624;28;21000;-68
2023/05/24 00:52:25;;;;;;;3.23;1.77;;;;;;;;;;5110709;28;20456;-68
2023/05/24 00:54:52;;;;;;;2.30;1.63;;;;;;;;;;5110912;28;20444;-68
2023/05/24 00:57:20;;;;;;;2.70;1.40;;;;;;;;;;5114011;28;20807;-68
2023/05/24 00:59:47;;;;;;;2.37;1.43;;;;;;;;;;5109442;28;20438;-66
2023/05/24 01:02:15;;;;;;;2.67;1.40;;;;;;;;;;5114380;28;20447;-68
2023/05/24 01:04:44;;;;;;;5.57;2.30;;;;;;;;;;5113175;28;20454;-68
2023/05/24 01:07:16;;;;;;;2.67;1.93;;;;;;;;;;5115294;28;20451;-68
2023/05/24 01:09:51;;;;;;;2.53;1.30;;;;;;;;;;5114403;28;20552;-68
2023/05/24 01:12:21;;;;;;;3.17;1.47;;;;;;;;;;5108465;28;20431;-68
2023/05/24 01:14:54;;;;;;;2.10;1.17;;;;;;;;;;5114322;28;20447;-68
2023/05/24 01:17:25;;;;;;;3.30;1.50;;;;;;;;;;5113817;28;20444;-68
2023/05/24 01:19:58;;;;;;;3.50;1.80;;;;;;;;;;5114708;28;20459;-68
2023/05/24 01:22:34;;;;;;;3.00;1.70;;;;;;;;;;5114017;28;20439;-67
2023/05/24 01:25:03;;;;;;;2.87;1.90;;;;;;;;;;5113522;28;20517;-67
2023/05/24 01:27:32;;;;;;;3.13;2.00;;;;;;;;;;5113599;28;20440;-68
2023/05/24 01:30:00;;;;;;;2.23;1.60;;;;;;;;;;5113912;28;20479;-68
2023/05/24 01:32:27;;;;;;;2.53;1.67;;;;;;;;;;5114066;28;20456;-67
2023/05/24 01:34:55;;;;;;;2.70;1.60;;;;;;;;;;5114192;28;20462;-68
2023/05/24 01:37:22;;;;;;;2.60;1.60;;;;;;;;;;5100778;28;20458;-68
2023/05/24 01:39:49;;;;;;;2.00;1.20;;;;;;;;;;5114078;28;20598;-68
2023/05/24 01:42:24;;;;;;;2.47;1.80;;;;;;;;;;5113658;28;20447;-67
2023/05/24 01:44:56;;;;;;;3.20;1.47;;;;;;;;;;5113791;28;20983;-68
2023/05/24 01:47:27;;;;;;;3.57;1.80;;;;;;;;;;5113576;28;20463;-67
2023/05/24 01:49:57;;;;;;;3.70;1.93;;;;;;;;;;5113776;28;20490;-67
2023/05/24 01:52:28;;;;;;;3.33;1.73;;;;;;;;;;5113392;28;20463;-67
2023/05/24 01:54:57;;;;;;;4.53;1.93;;;;;;;;;;5113326;28;20455;-68
2023/05/24 01:57:25;;;;;;;3.67;2.03;;;;;;;;;;5104201;28;20440;-67
2023/05/24 01:59:53;;;;;;;1.93;1.23;;;;;;;;;;5113732;28;20444;-68
2023/05/24 02:02:20;;;;;;;3.23;1.70;;;;;;;;;;5113542;28;20444;-67
2023/05/24 02:04:48;;;;;;;3.20;1.40;;;;;;;;;;5113513;28;20444;-67
2023/05/24 02:07:16;;;;;;;2.93;1.27;;;;;;;;;;5113642;28;20458;-67
2023/05/24 02:09:43;;;;;;;3.00;1.57;;;;;;;;;;5112436;28;20486;-68
2023/05/24 02:12:11;;;;;;;2.97;2.23;;;;;;;;;;5113411;28;20451;-68
2023/05/24 02:14:38;;;;;;;5.00;1.90;;;;;;;;;;5114142;28;20454;-67
2023/05/24 02:17:07;;;;;;;3.10;1.60;;;;;;;;;;5112832;28;20482;-68
2023/05/24 02:19:35;;;;;;;3.00;1.60;;;;;;;;;;5113916;28;20950;-67
2023/05/24 02:22:03;;;;;;;5.13;1.50;;;;;;;;;;5112536;28;20452;-68
2023/05/24 02:24:30;;;;;;;3.30;1.97;;;;;;;;;;5113776;28;20451;-67
2023/05/24 02:26:57;;;;;;;2.50;1.70;;;15.20;1.00;;;;;;5111176;28;20451;-68
2023/05/24 02:29:24;;;;;;;5.23;1.70;;;14.40;99.90;;;;;;5113422;28;20448;-67
2023/05/24 02:31:55;;;;;;;1.93;1.30;;;;;;;;;;5112211;28;20965;-67
2023/05/24 02:34:23;;;;;;;1.70;1.37;;;;;;;;;;5113755;28;20462;-67
2023/05/24 02:36:50;;;;;;;3.00;1.37;;;;;;;;;;5112844;28;20443;-67
2023/05/24 02:39:17;;;;;;;3.00;1.60;;;;;;;;;;5113406;28;20554;-67
2023/05/24 02:41:45;;;;;;;3.97;1.60;;;;;;;;;;5111755;28;20451;-68
2023/05/24 02:44:12;;;;;;;3.70;1.40;;;;;;;;;;5113175;28;20543;-67
2023/05/24 02:46:39;;;;;;;3.80;2.47;;;;;;;;;;5113312;28;20455;-68
2023/05/24 02:49:06;;;;;;;2.20;1.60;;;;;;;;;;5112240;28;20546;-67
2023/05/24 02:51:35;;;;;;;2.90;1.90;;;;;;;;;;5112664;28;20492;-67
2023/05/24 02:54:02;;;;;;;2.37;1.70;;;;;;;;;;5112631;28;20451;-67
2023/05/24 02:56:30;;;;;;;3.40;1.90;;;;;;;;;;5112634;28;20799;-67
2023/05/24 02:58:57;;;;;;;2.67;1.63;;;;;;;;;;5112579;28;20432;-67
2023/05/24 03:01:24;;;;;;;2.33;1.40;;;;;;;;;;5105795;28;20448;-67
2023/05/24 03:03:51;;;;;;;3.57;1.63;;;;;;;;;;5112273;28;20451;-67
2023/05/24 03:06:18;;;;;;;1.87;1.63;;;;;;;;;;5112796;28;20470;-67
2023/05/24 03:08:48;;;;;;;4.10;1.80;;;;;;;;;;5112177;28;20468;-67
2023/05/24 03:11:15;;;;;;;2.17;1.50;;;;;;;;;;5111748;28;20548;-67
2023/05/24 03:13:43;;;;;;;1.80;1.33;;;;;;;;;;5112187;28;20452;-69
2023/05/24 03:16:10;;;;;;;2.60;1.60;;;;;;;;;;5112853;28;20447;-67
2023/05/24 03:18:37;;;;;;;3.60;1.50;;;;;;;;;;5112633;28;20910;-67
2023/05/24 03:21:04;;;;;;;3.80;2.17;;;;;;;;;;5111378;28;20452;-67
2023/05/24 03:23:31;;;;;;;2.80;2.27;;;;;;;;;;5112213;28;20456;-67
2023/05/24 03:26:00;;;;;;;2.43;1.83;;;;;;;;;;5110359;28;20452;-66
2023/05/24 03:28:27;;;;;;;3.90;2.53;;;;;;;;;;5112221;28;20926;-67
2023/05/24 03:30:54;;;;;;;4.13;2.03;;;;;;;;;;5110920;28;20472;-67
2023/05/24 03:33:21;;;;;;;2.80;1.63;;;;;;;;;;5112297;28;20455;-67
2023/05/24 03:35:48;;;;;;;4.07;2.63;;;;;;;;;;5112038;28;20447;-67
2023/05/24 03:38:15;;;;;;;2.40;1.40;;;;;;;;;;5111951;28;20452;-67
2023/05/24 03:40:43;;;;;;;2.73;1.87;;;;;;;;;;5111128;28;20439;-67
2023/05/24 03:43:11;;;;;;;6.53;2.13;;;;;;;;;;5111860;28;20814;-67
2023/05/24 03:45:38;;;;;;;2.73;1.90;;;;;;;;;;5112334;28;20492;-66
2023/05/24 03:48:05;;;;;;;2.67;1.80;;;;;;;;;;5111335;28;20455;-67
2023/05/24 03:50:32;;;;;;;2.83;1.67;;;;;;;;;;5111554;28;20475;-66
2023/05/24 03:52:59;;;;;;;4.03;2.10;;;;;;;;;;5110854;28;20447;-66
2023/05/24 03:55:27;;;;;;;5.27;1.53;;;;;;;;;;5112022;28;20439;-66
2023/05/24 03:57:54;;;;;;;5.03;2.20;;;;;;;;;;5110873;28;20444;-69
2023/05/24 04:00:22;;;;;;;3.10;1.87;;;;;;;;;;5103539;28;20532;-68
2023/05/24 04:02:49;;;;;;;2.50;1.60;;;;;;;;;;5110808;28;20447;-67
2023/05/24 04:05:17;;;;;;;2.60;1.80;;;;;;;;;;5111703;28;20452;-69
2023/05/24 04:07:45;;;;;;;2.17;1.13;;;;;;;;;;5111344;28;20474;-69
2023/05/24 04:10:12;;;;;;;4.80;2.00;;;;;;;;;;5111333;28;20494;-69
2023/05/24 04:12:39;;;;;;;4.97;2.47;;;;;;;;;;5110718;28;20451;-68
2023/05/24 04:15:07;;;;;;;4.80;1.90;;;;;;;;;;5110609;28;20939;-68
2023/05/24 04:17:35;;;;;;;6.80;2.40;;;;;;;;;;5111594;28;20443;-68
2023/05/24 04:20:04;;;;;;;4.27;2.00;;;;;;;;;;5111175;28;20463;-68
2023/05/24 04:22:31;;;;;;;2.33;1.83;;;;;;;;;;5109246;28;20472;-68
2023/05/24 04:24:58;;;;;;;2.67;1.20;;;;;;;;;;5107925;28;20462;-67
2023/05/24 04:27:26;;;;;;;8.63;3.57;;;;;;;;;;5111368;28;20448;-68
2023/05/24 04:29:53;;;;;;;2.30;1.93;;;;;;;;;;5109751;28;20475;-70
2023/05/24 04:32:22;;;;;;;3.33;1.90;;;;;;;;;;5115789;28;20905;-67
2023/05/24 04:34:51;;;;;;;3.87;1.93;;;;;;;;;;5117089;27;20439;-64
2023/05/24 04:37:18;;;;;;;2.43;1.67;;;;;;;;;;5118002;28;20476;-67
2023/05/24 04:39:45;;;;;;;2.10;1.40;;;;;;;;;;5117489;28;20443;-67
2023/05/24 04:42:12;;;;;;;2.50;1.47;;;;;;;;;;5117994;28;20447;-68
2023/05/24 04:44:41;;;;;;;2.00;1.57;;;;;;;;;;5118563;28;20465;-67
2023/05/24 04:47:09;;;;;;;6.33;1.87;;;;;;;;;;5124798;27;20442;-67
2023/05/24 04:49:36;;;;;;;2.90;1.97;;;;;;;;;;5124046;27;20494;-67
2023/05/24 04:52:05;;;;;;;5.70;2.17;;;;;;;;;;5116206;27;20490;-67
2023/05/24 04:54:32;;;;;;;1.93;1.33;;;;;;;;;;5117758;28;21105;-67
2023/05/24 04:56:59;;;;;;;2.67;1.77;;;;;;;;;;5119807;27;20443;-68
2023/05/24 04:59:26;;;;;;;3.10;2.20;;;;;;;;;;5117298;28;20785;-68
2023/05/24 05:01:53;;;;;;;4.70;2.03;;;;;;;;;;5117087;28;20427;-67
2023/05/24 05:04:20;;;;;;;5.07;2.00;;;;;;;;;;5117313;28;20938;-66
2023/05/24 05:06:47;;;;;;;2.83;1.90;;;;;;;;;;5106307;28;20803;-66
2023/05/24 05:09:16;;;;;;;2.47;1.80;;;;;;;;;;5115196;28;20986;-66
2023/05/24 05:11:43;;;;;;;3.20;1.70;;;;;;;;;;5115880;28;20475;-68
2023/05/24 05:14:12;;;;;;;2.43;1.67;;;;;;;;;;5116972;28;20447;-67
2023/05/24 05:16:40;;;;;;;3.00;2.20;;;;;;;;;;5117538;28;20442;-67
2023/05/24 05:19:08;;;;;;;5.13;1.70;;;;;;;;;;5098698;28;20482;-66
2023/05/24 05:21:38;;;;;;;4.30;1.87;;;;;;;;;;5116877;28;20466;-66
2023/05/24 05:24:06;;;;;;;3.00;1.43;;;;;;;;;;5116994;28;20454;-65
2023/05/24 05:26:34;;;;;;;4.53;1.73;;;;;;;;;;5116876;27;20504;-66
2023/05/24 05:29:01;;;;;;;4.23;2.40;;;;;;;;;;5118283;27;20439;-66
2023/05/24 05:31:28;;;;;;;4.30;1.33;;;;;;;;;;5117395;28;20481;-67
2023/05/24 05:33:55;;;;;;;2.57;1.63;;;;;;;;;;5117181;28;20896;-67
2023/05/24 05:36:22;;;;;;;2.77;1.83;;;;;;;;;;5117673;28;20953;-67
2023/05/24 05:38:49;;;;;;;3.10;2.03;;;;;;;;;;5117544;28;20451;-66
2023/05/24 05:41:16;;;;;;;2.43;1.70;;;;;;;;;;5117077;27;20451;-66
2023/05/24 05:43:45;;;;;;;2.43;1.37;;;;;;;;;;5109346;28;20459;-67
2023/05/24 05:46:14;;;;;;;3.53;2.43;;;;;;;;;;5112010;28;20454;-67
2023/05/24 05:48:41;;;;;;;4.87;1.80;;;;;;;;;;5112790;28;20455;-67
2023/05/24 05:51:08;;;;;;;4.10;1.60;;;;;;;;;;5110996;28;20811;-67
2023/05/24 05:53:35;;;;;;;2.60;1.77;;;;;;;;;;5112019;27;20451;-67
2023/05/24 05:56:02;;;;;;;3.53;2.43;;;;;;;;;;5108181;28;20800;-67
2023/05/24 05:58:29;;;;;;;6.30;2.23;;;;;;;;;;5112368;28;20498;-68
2023/05/24 06:00:58;;;;;;;2.03;1.73;;;;;;;;;;5109205;28;20471;-68
2023/05/24 06:03:25;;;;;;;2.30;1.23;;;;;;;;;;5111596;28;20455;-68
2023/05/24 06:05:52;;;;;;;3.70;2.97;;;;;;;;;;5111950;28;20923;-68
2023/05/24 06:08:19;;;;;;;3.93;1.63;;;;;;;;;;5111808;27;20451;-68
2023/05/24 06:10:46;;;;;;;7.93;1.70;;;;;;;;;;5110380;28;20486;-66
2023/05/24 06:13:13;;;;;;;7.20;2.63;;;;;;;;;;5111596;28;20447;-70
2023/05/24 06:15:41;;;;;;;2.13;1.50;;;;;;;;;;5110781;28;20454;-70
2023/05/24 06:18:09;;;;;;;2.83;1.90;;;;;;;;;;5111057;28;20920;-70
2023/05/24 06:20:36;;;;;;;4.27;1.87;;;;;;;;;;5110709;28;20534;-70
2023/05/24 06:23:03;;;;;;;3.13;2.13;;;;;;;;;;5111852;28;20448;-70
2023/05/24 06:25:31;;;;;;;6.70;2.00;;;;;;;;;;5111323;28;20789;-70
2023/05/24 06:27:58;;;;;;;3.03;2.00;;;;;;;;;;5110901;28;20450;-70
2023/05/24 06:30:26;;;;;;;8.40;2.10;;;;;;;;;;5111591;28;20463;-69
2023/05/24 06:32:53;;;;;;;3.00;2.20;;;;;;;;;;5110508;28;20938;-67
2023/05/24 06:35:21;;;;;;;2.50;1.50;;;;;;;;;;5110934;28;20449;-66
2023/05/24 06:37:49;;;;;;;4.87;2.57;;;;;;;;;;5107321;28;20443;-67
2023/05/24 06:40:16;;;;;;;3.47;1.17;;;;;;;;;;5110735;28;20471;-65
2023/05/24 06:42:43;;;;;;;2.53;1.70;;;;;;;;;;5110031;28;20542;-68
2023/05/24 06:45:10;;;;;;;4.57;1.83;;;;;;;;;;5110326;28;20455;-68
2023/05/24 06:47:37;;;;;;;4.20;1.70;;;;;;;;;;5105641;28;20448;-68
2023/05/24 06:50:05;;;;;;;3.00;1.50;;;;;;;;;;5109242;28;20447;-68
2023/05/24 06:52:33;;;;;;;2.47;2.10;;;;;;;;;;5110468;28;20475;-68
2023/05/24 06:55:00;;;;;;;2.70;1.57;;;;;;;;;;5110018;28;20539;-68
2023/05/24 06:57:27;;;;;;;3.40;2.07;;;;;;;;;;5108960;28;20451;-69
2023/05/24 06:59:55;;;;;;;3.20;1.60;;;;;;;;;;5104910;28;20433;-69
2023/05/24 07:02:26;;;;;;;6.23;2.63;;;;;;;;;;5103229;28;20950;-69
2023/05/24 07:04:53;;;;;;;3.10;1.67;;;;;;;;;;5111336;28;20511;-68
2023/05/24 07:07:20;;;;;;;5.73;1.97;;;;;;;;;;5110919;27;20448;-69
2023/05/24 07:09:48;;;;;;;3.67;1.97;;;;;;;;;;5109809;28;20476;-68
2023/05/24 07:12:16;;;;;;;4.10;1.70;;;;;;;;;;5109232;28;20471;-68
2023/05/24 07:14:44;;;;;;;3.00;1.67;;;;;;;;;;5108967;28;20460;-68
2023/05/24 07:17:11;;;;;;;3.60;2.33;;;;;;;;;;5108332;28;20447;-67
2023/05/24 07:19:38;;;;;;;3.07;1.87;;;;;;;;;;5109888;28;20449;-68
2023/05/24 07:22:06;;;;;;;3.50;1.83;;;;;;;;;;5110086;27;20500;-67
2023/05/24 07:24:33;;;;;;;4.70;1.90;;;;;;;;;;5111032;28;20460;-68
2023/05/24 07:27:02;;;;;;;8.00;2.20;;;;;;;;;;5106942;28;20451;-68
2023/05/24 07:29:29;;;;;;;3.13;2.10;;;;;;;;;;5105347;28;20452;-68
2023/05/24 07:31:56;;;;;;;3.90;1.70;;;;;;;;;;5108999;28;20479;-67
2023/05/24 07:34:26;;;;;;;5.40;1.70;;;;;;;;;;5110494;28;20927;-68
2023/05/24 07:36:53;;;;;;;5.07;2.00;;;;;;;;;;5109749;28;20455;-68
2023/05/24 07:39:20;;;;;;;2.30;1.40;;;;;;;;;;5108888;28;20527;-68
2023/05/24 07:41:47;;;;;;;7.43;2.60;;;;;;;;;;5109636;28;20450;-68
2023/05/24 07:44:16;;;;;;;6.27;2.20;;;;;;;;;;5109798;28;20923;-68
2023/05/24 07:46:43;;;;;;;2.10;1.80;;;;;;;;;;5109746;28;20448;-69
2023/05/24 07:49:10;;;;;;;3.43;1.57;;;;;;;;;;5110391;28;20463;-69
2023/05/24 07:51:37;;;;;;;2.30;1.60;;;;;;;;;;5110174;28;20500;-68
2023/05/24 07:54:05;;;;;;;2.60;2.30;;;;;;;;;;5114108;27;20447;-69
2023/05/24 07:56:32;;;;;;;5.27;2.60;;;;;;;;;;5107604;28;20523;-68
2023/05/24 07:59:03;;;;;;;4.00;2.30;;;;;;;;;;5109086;28;20448;-68
2023/05/24 08:01:33;;;;;;;3.43;2.00;;;;;;;;;;5107486;28;20452;-68
2023/05/24 08:04:00;;;;;;;2.30;1.67;;;;;;;;;;5109806;28;20820;-68
2023/05/24 08:06:27;;;;;;;5.40;2.20;;;;;;;;;;5109393;28;20513;-68
2023/05/24 08:08:55;;;;;;;4.47;1.83;;;;;;;;;;5108352;28;20476;-68
2023/05/24 08:11:22;;;;;;;4.40;2.03;;;;;;;;;;5108696;28;20487;-68
2023/05/24 08:13:49;;;;;;;7.97;2.00;;;;;;;;;;5108357;28;20818;-68
2023/05/24 08:16:16;;;;;;;4.80;2.50;;;;;;;;;;5109248;28;20458;-68
2023/05/24 08:18:45;;;;;;;3.63;2.17;;;;;;;;;;5108515;28;20845;-68
2023/05/24 08:21:12;;;;;;;4.03;2.10;;;;;;;;;;5108790;28;20956;-68
2023/05/24 08:23:39;;;;;;;9.20;3.47;;;;;;;;;;5108050;28;20451;-68
2023/05/24 08:26:07;;;;;;;3.20;1.67;;;;;;;;;;5104773;28;20448;-68
2023/05/24 08:28:35;;;;;;;3.80;2.47;;;;;;;;;;5108732;28;20512;-68
2023/05/24 08:31:03;;;;;;;3.20;1.90;;;;;;;;;;5109499;28;20995;-68
2023/05/24 08:33:30;;;;;;;2.53;1.80;;;;;;;;;;5110172;28;20443;-68
2023/05/24 08:35:58;;;;;;;5.23;1.70;;;;;;;;;;5107727;28;20946;-68
2023/05/24 08:38:25;;;;;;;5.40;1.80;;;;;;;;;;5109066;28;20450;-67
2023/05/24 08:40:53;;;;;;;3.10;1.80;;;;;;;;;;5108263;28;20957;-67
2023/05/24 08:43:20;;;;;;;8.43;2.13;;;;;;;;;;5109278;28;20447;-67
2023/05/24 08:45:49;;;;;;;3.97;2.00;;;;;;;;;;5106801;28;21098;-67
2023/05/24 08:48:17;;;;;;;5.17;2.43;;;;;;;;;;5107805;28;20950;-67
2023/05/24 08:50:44;;;;;;;4.10;2.20;;;;;;;;;;5107739;28;21186;-68
2023/05/24 08:53:13;;;;;;;2.90;1.80;;;;;;;;;;5109233;28;20828;-68
2023/05/24 08:55:42;;;;;;;1.83;1.57;;;;;;;;;;5103411;28;20448;-67
2023/05/24 08:58:10;;;;;;;2.73;1.37;;;;;;;;;;5108576;28;20468;-68
2023/05/24 09:00:37;;;;;;;4.03;2.30;;;;;;;;;;5108731;28;20828;-67
2023/05/24 09:03:05;;;;;;;6.80;2.10;;;;;;;;;;5107327;28;21233;-64
2023/05/24 09:05:33;;;;;;;3.50;1.70;;;;;;;;;;5114565;28;20443;-66
2023/05/24 09:08:00;;;;;;;7.10;1.90;;;;;;;;;;5109205;28;20443;-65
2023/05/24 09:10:29;;;;;;;3.77;2.30;;;;;;;;;;5108601;28;20535;-66
2023/05/24 09:12:57;;;;;;;2.87;1.70;;;;;;;;;;5108077;28;20552;-63
2023/05/24 09:15:25;;;;;;;5.63;2.07;;;;;;;;;;5113292;28;20458;-63
2023/05/24 09:17:52;;;;;;;4.57;2.10;;;;;;;;;;5116783;27;20456;-66
2023/05/24 09:20:20;;;;;;;3.70;2.70;;;;;;;;;;5111213;27;20455;-68
2023/05/24 09:22:53;;;;;;;4.23;2.40;;;;;;;;;;5110174;28;20458;-66
2023/05/24 09:25:20;;;;;;;2.90;2.20;;;;;;;;;;5113439;28;20435;-66
2023/05/24 09:27:52;;;;;;;2.87;1.67;;;;;;;;;;5111550;28;20451;-67
2023/05/24 09:30:19;;;;;;;4.53;2.30;;;;;;;;;;5112856;28;20443;-67
2023/05/24 09:32:56;;;;;;;2.37;1.83;;;;;;;;;;5111705;28;20498;-67
2023/05/24 09:35:25;;;;;;;4.80;1.70;;;;;;;;;;5113173;28;20500;-66
2023/05/24 09:37:56;;;;;;;3.33;2.40;;;;;;;;;;5111695;28;20451;-67
2023/05/24 09:40:23;;;;;;;5.63;1.60;;;;;;;;;;5113014;28;20871;-67
2023/05/24 09:43:02;;;;;;;5.33;1.90;;;;;;;;;;5112183;28;20462;-67
2023/05/24 09:45:30;;;;;;;6.63;2.10;;;;;;;;;;5112393;28;20447;-68
2023/05/24 09:47:58;;;;;;;4.03;2.47;;;;;;;;;;5111574;28;20459;-68
2023/05/24 09:50:27;;;;;;;6.77;2.90;;;;;;;;;;5111995;28;20543;-67
2023/05/24 09:52:55;;;;;;;3.33;1.90;;;;;;;;;;5111043;28;20562;-68
2023/05/24 09:55:22;;;;;;;3.77;2.00;;;;;;;;;;5110871;28;20958;-67
2023/05/24 09:57:53;;;;;;;4.50;2.07;;;;;;;;;;5108828;28;20447;-69
2023/05/24 10:00:22;;;;;;;5.23;2.17;;;;;;;;;;5104141;28;20451;-69
2023/05/24 10:03:01;;;;;;;5.03;2.10;;;;;;;;;;5106834;28;20467;-68
2023/05/24 10:05:28;;;;;;;3.73;2.17;;;;;;;;;;5111135;28;20435;-67
2023/05/24 10:07:56;;;;;;;2.70;1.90;;;;;;;;;;5110744;28;21395;-67
2023/05/24 10:10:23;;;;;;;6.23;2.30;;;;;;;;;;5111939;28;20472;-67
2023/05/24 10:12:52;;;;;;;4.20;1.60;;;;;;;;;;5110987;28;20483;-67
2023/05/24 10:15:19;;;;;;;2.73;2.50;;;;;;;;;;5110990;27;20440;-67
2023/05/24 10:17:47;;;;;;;5.63;3.30;;;;;;;;;;5111325;28;20807;-67
2023/05/24 10:20:14;;;;;;;4.60;2.07;;;;;;;;;;5111086;28;20521;-66
2023/05/24 10:22:44;;;;;;;5.23;1.83;;;;;;;;;;5110265;28;20938;-66
2023/05/24 10:25:15;;;;;;;2.53;2.00;;;;;;;;;;5109089;28;20444;-67
2023/05/24 10:27:44;;;;;;;6.30;2.23;;;;;;;;;;5107614;28;20451;-68
2023/05/24 10:30:16;;;;;;;2.83;2.17;;;;;;;;;;5109050;28;20444;-69
2023/05/24 10:32:45;;;;;;;3.13;2.10;;;;;;;;;;5110167;28;20503;-68
2023/05/24 10:35:13;;;;;;;3.57;2.23;;;;;;;;;;5112661;28;20538;-68
2023/05/24 10:37:41;;;;;;;3.40;1.97;;;;;;;;;;5113036;28;20539;-67
2023/05/24 10:40:08;;;;;;;4.03;2.60;;;;;;;;;;5113557;28;20444;-67
2023/05/24 10:42:36;;;;;;;4.10;2.07;;;;;;;;;;5112833;28;20505;-67
2023/05/24 10:45:18;;;;;;;4.50;2.20;;;;;;;;;;5112630;28;20467;-67
2023/05/24 10:47:46;;;;;;;4.50;2.27;;;;;;;;;;5111964;28;20454;-67
2023/05/24 10:50:18;;;;;;;4.30;2.60;;;;;;;;;;5113031;28;20470;-68
2023/05/24 10:52:46;;;;;;;2.27;1.83;;;;;;;;;;5112694;28;20478;-67
2023/05/24 10:55:13;;;;;;;2.20;1.53;;;;;;;;;;5110208;28;20448;-67
2023/05/24 10:57:40;;;;;;;3.50;1.87;;;;;;;;;;5105592;28;20471;-67
2023/05/24 11:00:27;;;;;;;2.83;1.90;;;;;;;;;;5105437;28;20444;-68
2023/05/24 11:03:02;;;;;;;3.70;1.70;;;;;;;;;;5109424;28;20569;-67
2023/05/24 11:05:33;;;;;;;3.07;2.20;;;;;;;;;;5113013;28;20526;-67
2023/05/24 11:08:02;;;;;;;2.83;1.97;;;;;;;;;;5111916;28;20443;-67
2023/05/24 11:10:33;;;;;;;4.10;1.90;;;;;;;;;;5112420;28;20475;-67
2023/05/24 11:13:01;;;;;;;3.23;1.77;;;;;;;;;;5112103;28;20471;-67
2023/05/24 11:15:29;;;;;;;6.60;1.63;;;;;;;;;;5112761;28;20452;-68
2023/05/24 11:18:16;;;;;;;3.70;1.73;;;;;;;;;;5098478;28;20872;-67
2023/05/24 11:20:45;;;;;;;2.47;1.80;;;;;;;;;;5112016;28;20455;-66
2023/05/24 11:23:12;;;;;;;3.83;2.30;;;;;;;;;;5112723;28;20459;-69
2023/05/24 11:25:39;;;;;;;3.63;2.13;;;;;;;;;;5109892;28;20935;-65
2023/05/24 11:28:08;;;;;;;3.33;1.73;;;;;;;;;;5111557;28;20448;-65
2023/05/24 11:30:39;;;;;;;6.20;2.20;;;;;;;;;;5112146;28;20444;-66
2023/05/24 11:33:06;;;;;;;3.43;2.33;;;;;;;;;;5111656;28;20548;-66
2023/05/24 11:35:35;;;;;;;5.50;2.00;;;;;;;;;;5112202;28;20452;-66
2023/05/24 11:38:02;;;;;;;5.33;2.10;;;;;;;;;;5110998;28;20714;-66
2023/05/24 11:40:29;;;;;;;4.67;2.67;;;;;;;;;;5111243;28;20447;-66
2023/05/24 11:42:56;;;;;;;3.63;2.10;;;;;;;;;;5111470;28;20462;-66
2023/05/24 11:45:24;;;;;;;5.33;2.47;;;;;;;;;;5112245;28;20517;-66
2023/05/24 11:47:51;;;;;;;3.70;3.13;;;;;;;;;;5110897;28;20782;-66
2023/05/24 11:50:24;;;;;;;3.80;1.83;;;;;;;;;;5112116;28;20444;-66
2023/05/24 11:52:52;;;;;;;2.53;1.77;;;;;;;;;;5111515;28;20475;-66
2023/05/24 11:55:24;;;;;;;4.20;2.00;;;;;;;;;;5108426;28;20931;-66
2023/05/24 11:57:55;;;;;;;6.30;1.93;;;;;;;;;;5105979;28;20451;-66
2023/05/24 12:00:26;;;;;;;4.73;1.70;;;14.50;99.90;;;;;;5102334;28;20490;-66
2023/05/24 12:02:53;;;;;;;7.13;2.87;;;;;;;;;;5108066;28;20477;-66
2023/05/24 12:05:22;;;;;;;3.57;1.97;;;;;;;;;;5111498;28;20456;-66
2023/05/24 12:07:49;;;;;;;2.97;2.20;;;;;;;;;;5110893;28;20454;-66
2023/05/24 12:10:17;;;;;;;5.10;1.57;;;;;;;;;;5111295;28;21013;-66
2023/05/24 12:12:45;;;;;;;4.27;1.90;;;;;;;;;;5110644;28;21016;-66
2023/05/24 12:15:13;;;;;;;2.13;1.43;;;;;;;;;;5111763;28;20448;-66
2023/05/24 12:17:41;;;;;;;3.10;1.90;;;;;;;;;;5111316;28;20475;-66
2023/05/24 12:20:11;;;;;;;5.37;1.93;;;;;;;;;;5111559;28;20946;-66
2023/05/24 12:22:38;;;;;;;3.10;1.33;;;;;;;;;;5111735;28;20475;-66
2023/05/24 12:25:05;;;;;;;1.50;1.00;;;;;;;;;;5109629;28;20447;-66
2023/05/24 12:27:34;;;;;;;2.17;1.37;;;;;;;;;;5109929;28;20443;-66
2023/05/24 12:30:08;;;;;;;3.50;1.83;;;;;;;;;;5110675;28;20911;-66
2023/05/24 12:32:35;;;;;;;5.93;1.73;;;;;;;;;;5111606;28;20528;-66
2023/05/24 12:35:04;;;;;;;2.20;1.50;;;;;;;;;;5110728;28;20455;-66
2023/05/24 12:37:32;;;;;;;3.57;1.50;;;;;;;;;;5110748;28;20447;-66
2023/05/24 12:40:04;;;;;;;2.80;1.80;;;;;;;;;;5110546;28;20454;-66
2023/05/24 12:42:31;;;;;;;1.90;1.10;;;;;;;;;;5111469;28;20519;-66
2023/05/24 12:44:59;;;;;;;3.80;1.70;;;;;;;;;;5110795;28;20456;-66
2023/05/24 12:47:27;;;;;;;4.63;1.90;;;;;;;;;;5110894;28;20625;-66
2023/05/24 12:49:54;;;;;;;3.23;2.27;;;;;;;;;;5110357;28;20459;-66
2023/05/24 12:52:21;;;;;;;1.97;1.23;;;;;;;;;;5112624;28;20454;-66
2023/05/24 12:54:48;;;;;;;5.30;1.77;;;;;;;;;;5114424;28;20490;-66
2023/05/24 12:57:15;;;;;;;2.07;1.40;;;;;;;;;;5105533;28;20450;-66
2023/05/24 12:59:42;;;;;;;1.63;1.20;;;;;;;;;;5110311;28;20519;-68
2023/05/24 13:02:11;;;;;;;6.10;1.30;;;;;;;;;;5106172;28;20965;-66
2023/05/24 13:04:38;;;;;;;1.73;1.37;;;;;;;;;;5115649;28;20443;-66
2023/05/24 13:07:05;;;;;;;2.37;1.67;;;;;;;;;;5114206;28;20790;-66
2023/05/24 13:09:33;;;;;;;5.00;2.00;;;;;;;;;;5115088;28;20904;-66
2023/05/24 13:12:00;;;;;;;4.40;1.60;;;;;;;;;;5114718;28;20547;-66
2023/05/24 13:14:27;;;;;;;2.67;1.60;;;;;;;;;;5115023;28;20842;-66
2023/05/24 13:16:54;;;;;;;2.60;1.43;;;;;;;;;;5114224;28;20449;-66
2023/05/24 13:19:22;;;;;;;2.50;1.80;;;;;;;;;;5116356;27;20824;-66
2023/05/24 13:21:50;;;;;;;4.93;1.80;;;;;;;;;;5114143;28;20806;-67
2023/05/24 13:24:17;;;;;;;1.93;1.10;;;;;;;;;;5114886;28;20458;-66
2023/05/24 13:26:44;;;;;;;3.83;1.70;;;;;;;;;;5111695;28;20483;-67
2023/05/24 13:29:12;;;;;;;4.60;1.80;;;;;;;;;;5114633;28;20496;-66
2023/05/24 13:31:40;;;;;;;5.23;1.30;;;;;;;;;;5114990;28;20440;-66
2023/05/24 13:34:09;;;;;;;2.20;1.40;;;;;;;;;;5114491;28;20476;-66
2023/05/24 13:36:37;;;;;;;4.07;1.60;;;;;;;;;;5114264;28;20447;-66
2023/05/24 13:39:05;;;;;;;1.97;1.57;;;;;;;;;;5114262;28;20454;-66
2023/05/24 13:41:33;;;;;;;1.90;1.50;;;;;;;;;;5114419;28;20520;-65
2023/05/24 13:44:00;;;;;;;3.00;1.47;;;;;;;;;;5113576;28;20485;-66
2023/05/24 13:46:28;;;;;;;2.00;1.30;;;;;;;;;;5114150;28;20448;-65
2023/05/24 13:48:55;;;;;;;3.57;1.43;;;;;;;;;;5113976;28;20463;-66
2023/05/24 13:51:23;;;;;;;1.73;1.40;;;;;;;;;;5114324;28;20440;-66
2023/05/24 13:53:51;;;;;;;1.73;1.10;;;;;;;;;;5113835;28;20840;-65
2023/05/24 13:56:18;;;;;;;2.80;1.73;;;;;;;;;;5113955;28;20451;-65
2023/05/24 13:58:45;;;;;;;2.07;1.17;;;;;;;;;;5113600;28;20443;-66
2023/05/24 14:01:12;;;;;;;5.60;2.00;;;16.60;91.40;;;;;;5113878;28;20451;-68
2023/05/24 14:03:40;;;;;;;4.83;1.40;;;;;;;;;;5113189;28;20443;-66
2023/05/24 14:06:07;;;;;;;2.53;1.60;;;;;;;;;;5113619;28;20452;-66
2023/05/24 14:08:34;;;;;;;1.73;1.43;;;21.80;1.00;;;;;;5113845;28;20443;-66
2023/05/24 14:11:02;;;;;;;3.87;1.70;;;21.40;1.00;;;;;;5113429;28;20458;-66
2023/05/24 14:13:29;;;;;;;1.80;1.30;;;20.40;1.00;;;;;;5113596;28;20479;-68
2023/05/24 14:15:56;;;;;;;2.03;1.43;;;20.20;1.00;;;;;;5113006;28;20448;-66
2023/05/24 14:18:23;;;;;;;1.83;1.13;;;;;;;;;;5113964;28;20469;-66
2023/05/24 14:20:50;;;;;;;2.50;1.57;;;;;;;;;;5113311;28;20817;-66
2023/05/24 14:23:17;;;;;;;2.70;1.40;;;20.10;1.00;;;;;;5113851;28;20447;-66
2023/05/24 14:25:45;;;;;;;2.27;1.20;;;21.00;1.00;;;;;;5112761;28;20558;-66
2023/05/24 14:28:14;;;;;;;1.70;1.30;;;;;;;;;;5113695;28;20448;-66
2023/05/24 14:30:41;;;;;;;2.10;1.07;;;;;;;;;;5113336;28;20447;-66
2023/05/24 14:33:10;;;;;;;2.63;1.40;;;;;;;;;;5113651;28;20795;-66
2023/05/24 14:35:38;;;;;;;2.40;1.40;;;;;;;;;;5113413;28;20479;-66
2023/05/24 14:38:05;;;;;;;4.47;1.23;;;;;;;;;;5113064;28;20443;-66
2023/05/24 14:40:33;;;;;;;3.83;1.80;;;;;;;;;;5113103;28;20451;-66
2023/05/24 14:42:59;;;;;;;2.87;1.77;;;21.60;1.00;;;;;;5112869;28;20447;-67